Qionghai, China
Current Conditions -  °F | °C
As of 12:00 AM on Tuesday 25 Nov 2014 (Local Time) from ZJHK Reporting Station
Light Fog Light Fog  
Wind Chill: 68°   Ceiling: Unl
Heat Index: 68°   Visibility: 2.5mi
Dew Point: 66°   Wind: 0mph
Humidity: 94%   Direction: NA
Pressure: 29.94"   Gusts: NA
Location:  19.23°N, 110.47°E
Report Text: ZJHK 241600Z 00000MPS 4000 BR BCFG NSC 20/19 Q1014 NOSIG
Loading
Personal Weather Stations






























Interactive Weather Map New forecast layout! Learn more

10-Day Weather Forecast

Advertisements
Track Severe Weather on mobile